METAR AND TAF INFORMATION
METAR FOR SABE
ADDS - METARS form results

(0717 UTC 18 June 2019)
Data provider http://aviationweather.gov/metar/data/
 
METAR text: SABE 180715Z 25006KT 210V310 3000 -TSRA BR SCT006 BKN030 FEW045CB 12/12 Q1011 NOSIG
Conditions at: SABE (AEROPARQUE(CIV/M, AR) observed 0715 UTC 18 June 2019
Temperature: 12.0°C (54°F)
Dewpoint: 12.0°C (54°F) [RH = 100%]
Pressure (altimeter): 29.85 inches Hg (1011.0 mb)
Winds: from the WSW (250 degrees) at 7 MPH (6 knots; 3.1 m/s)
Visibility: 1.86 miles (2.99 km)
Ceiling: 3000 feet AGL
Clouds: scattered clouds at 600 feet AGL
broken clouds at 3000 feet AGL
few clouds at 4500 feet AGL
Weather: -TSRA BR  (light rain associated with thunderstorm(s), mist)

METAR text: SABE 180700Z 27005KT 210V310 1500 TSRA BR BKN006 FEW040CB 12/12 Q1012 2000 TSRA BKN005 OVC015 FEW040CB
Conditions at: SABE (AEROPARQUE(CIV/M, AR) observed 0700 UTC 18 June 2019
Temperature: 12.0°C (54°F)
Dewpoint: 12.0°C (54°F) [RH = 100%]
Pressure (altimeter): 29.88 inches Hg (1012.0 mb)
Winds: from the W (270 degrees) at 6 MPH (5 knots; 2.6 m/s)
Visibility: 0.93 miles (1.50 km)
Ceiling: 600 feet AGL
Clouds: broken clouds at 600 feet AGL
few clouds at 4000 feet AGL
broken clouds at 500 feet AGL
overcast cloud deck at 1500 feet AGL
Weather: TSRA BR TSRA  (rain associated with thunderstorm(s), mist, rain associated with thunderstorm(s))

METAR text: SABE 180649Z 28006KT 1500 TSRA BKN006 BKN011 FEW040CB 12/12 Q1012 NOSIG
Conditions at: SABE (AEROPARQUE(CIV/M, AR) observed 0649 UTC 18 June 2019
Temperature: 12.0°C (54°F)
Dewpoint: 12.0°C (54°F) [RH = 100%]
Pressure (altimeter): 29.88 inches Hg (1012.0 mb)
Winds: from the W (280 degrees) at 7 MPH (6 knots; 3.1 m/s)
Visibility: 0.93 miles (1.50 km)
Ceiling: 600 feet AGL
Clouds: broken clouds at 600 feet AGL
broken clouds at 1100 feet AGL
few clouds at 4000 feet AGL
Weather: TSRA  (rain associated with thunderstorm(s))

METAR text: SABE 180641Z 27006KT 3000 -TSRA BKN007 BKN012 FEW045CB 12/12 Q1011 NOSIG
Conditions at: SABE (AEROPARQUE(CIV/M, AR) observed 0641 UTC 18 June 2019
Temperature: 12.0°C (54°F)
Dewpoint: 12.0°C (54°F) [RH = 100%]
Pressure (altimeter): 29.85 inches Hg (1011.0 mb)
Winds: from the W (270 degrees) at 7 MPH (6 knots; 3.1 m/s)
Visibility: 1.86 miles (2.99 km)
Ceiling: 700 feet AGL
Clouds: broken clouds at 700 feet AGL
broken clouds at 1200 feet AGL
few clouds at 4500 feet AGL
Weather: -TSRA  (light rain associated with thunderstorm(s))

METAR text: SABE 180625Z 28007KT 5000 -TSRA BKN006 BKN015 FEW050CB 13/12 Q1012 NOSIG
Conditions at: SABE (AEROPARQUE(CIV/M, AR) observed 0625 UTC 18 June 2019
Temperature: 13.0°C (55°F)
Dewpoint: 12.0°C (54°F) [RH = 94%]
Pressure (altimeter): 29.88 inches Hg (1012.0 mb)
Winds: from the W (280 degrees) at 8 MPH (7 knots; 3.6 m/s)
Visibility: 3 miles ( 5 km)
Ceiling: 600 feet AGL
Clouds: broken clouds at 600 feet AGL
broken clouds at 1500 feet AGL
few clouds at 5000 feet AGL
Weather: -TSRA  (light rain associated with thunderstorm(s))

Forecast for: SABE (AEROPARQUE(CIV/M, AR)
Text: TAF SABE 180500Z 1806/1906 32005KT 8000 -RADZ SCT005 BKN030 TX15/1818Z TN11/1811Z
Forecast period: 0600 to 1300 UTC 18 June 2019
Forecast type: FROM: standard forecast or significant change
Winds: from the NW (320 degrees) at 6 MPH (5 knots; 2.6 m/s)
Visibility: 5 miles (8 km)
Ceiling: 3000 feet AGL
Clouds: scattered clouds at 500 feet AGL
broken clouds at 3000 feet AGL
Weather: -RA -DZ  (light rain, light drizzle)
Text: TEMPO 1806/1811 VRB10KT 1500 TSRA BR BKN005 OVC020 FEW040CB
Forecast period: 0600 to 1100 UTC 18 June 2019
Forecast type: TEMPORARY: The following changes expected for less than half the time period
Winds: variable direction winds at 12 MPH (10 knots; 5.1 m/s)
Visibility: 0.93 miles (1.50 km)
Ceiling: 500 feet AGL
Clouds: broken clouds at 500 feet AGL
overcast cloud deck at 2000 feet AGL
few clouds at 4000 feet AGL
Weather: TSRA BR  (rain associated with thunderstorm(s), mist)
Text: BECMG 1813/1816 29015G30KT 9999 NSW BKN020
Forecast period: 1300 UTC 18 June 2019 to 0600 UTC 19 June 2019
Forecast type: BECOMING: Conditions expected to become as follows by 1600 UTC 18 June 2019
Winds: from the WNW (290 degrees) at 17 MPH (15 knots; 7.7 m/s)
gusting to 34 MPH (30 knots; 15.4 m/s)
Visibility: 6 or more miles 10+ km)
Ceiling: 2000 feet AGL
Clouds: broken clouds at 2000 feet AGL
Weather: NSW  (no significant weather)

 AIRPORT MAP

 RUNWAY INFORMATION
Runway 13 Runway length 6890 ft Runway width 131 ft
Runway elevation 18 ft Runway displaced threshold 0 ft Runway heading 124
Runway 31 Runway length 6890 ft Runway width 131 ft
Runway elevation 15 ft Runway displaced threshold 417 ft Runway heading 304

 AIRPORT FREQUENCIES
Type APP Name APP Frequency 120.6 MHZ
Type ATIS Name ATIS Frequency 127.6 MHZ
Type CLD Name CLNC DEL Frequency 129.3 MHZ
Type GND Name GND Frequency 121.9 MHZ
Type TWR Name TWR Frequency 118.85 MHZ

 AIRPORT NEAR NAVIGATION AIDS
Type NDB Name Aeroparque Jorge Newbery Frequency 260 KHZ



Powered by Virtual Airlines Manager [v2.6.2]